Terminal Aerodrome Forecast
Issued by NWS

Home | Current Version | Previous Version | Text Only | Print | Product List | Glossary On
Versions: 1 2 3 4 5 6 7 8 9 10 11 12 13 14 15 16 17 18 19 20 21 22 23
000
FTUS43 KFGF 250500
TAFDVL
TAF
KDVL 250520Z 2506/2606 VRB03KT 2SM BR FEW008 BKN015
      TEMPO 2506/2509 1/2SM FG BKN006
     FM251400 34007KT P6SM BKN015
     FM251700 07008KT P6SM BKN025
      AMD LTD TO CLD VIS AND WIND=

USA.gov is the U.S. government's official web portal to all federal, state and local government web resources and services.